Airfield :
LOGIN :

Register | Disclaimer

   EN    FR    IT 

 










Legend :    VFR   Marginal VFR   IFR   Intensive IFR   Very Intensive IFR
Visi :
Ceiling :
>= 8 km
>= 3000ft
5 to 8 km
1000 to 3000 ft
1500m to 5 km
500 to 1000 ft
800 to 1500m
200 to 500 ft
< 800m
< 200 ft
Symbols :   Thunderstorms  Fog  Heavy snow  Heavy precipitations  Wind > 20 kt
SIGMETs :     Misc.  Thunderstorms  Icing  Turbulence  Mountain Waves  Volcanic Ashes






- Airport Elevation : 45 ft
- IATA code : CEG


EGNR - Hawarden Chester

CURRENT METAR :
  • 271050Z 31010KT 280V350 9999 -RA SCT013 BKN034 11/07 Q1001

EXPIRED METARs :
  • 271020Z 31011KT 280V350 9999 -RA BKN013 11/08 Q1002
  • 270950Z 29007KT 250V320 9999 4000W -RA BKN012 10/08 Q1002
  • 270920Z 31008KT 260V340 9000 -RA BKN012 11/08 Q1002
  • 270850Z 29007KT 250V330 9999 -RA SCT012 SCT026 11/08 Q1002
  • 270820Z 31009G19KT 260V330 9999 -RA SCT012 SCT028 11/08 Q1002
  • 270750Z 30006KT 260V330 9999 VCSH SCT012 SCT023 11/08 Q1001

TAF AMD TAF EGNR
Valid from the 27 at 09:00 until the 27 at 18:00 UTC


270947Z 2709/2718 29006KT 9999 SCT025
TEMPO 2709/2718 6000 SHRA
PROB30
TEMPO 2709/2718 30020G30KT 4000 +SHRA BKN012



MET'MAP, your aeronautical weather chart ! - Copyright ORBIFLY December 2007 - Disclaimer

ORBIFLY MET'MAP TEAM :

Programming & Development : Alexandra Zaïnal
Original concept : Baudouin d'Aumeries
Technical & hardware support : Manuel Goepfert
Assistance : Marc-Olivier Méhu




SOURCES & CREDITS :

   NOAA